Accueil
METAR-TAF:

METAR-TAF

Aéroports :

Pointe-Noire, Congo

Aéroport international Agostinho-Neto

latitude: 04-49S, longitude: 011-54E, altitude: 17 m

Observation

Le bulletin a été fait il y a 1 heure et 5 minutes, à 02:00 UTC
Vent 7 kt de sud-ouest
Température 23°C
Humidité 89%
Pression 1013 hPa
Visibilité: 7000 m
Nuages épars à une hauteur de 700 ft
Ciel couvert à une hauteur de 2000 ft

METAR: FCPP 240200Z 23007KT 7000 SCT007 OVC020 23/21 Q1013 NOSIG

Heure: 04:05 (03:05 UTC)

Prévision

Le bulletin a été fait il y a 4 heures et 5 minutes, à 23:00 UTC
Prévision valable du 24 à 00 UTC au 24 à 24 UTC
Vent 4 kt de sud/sud-ouest
Visibilité: 8000 m
Nuages épars à une hauteur de 1200 ft
Nuages fragmentés à une hauteur de 2300 ft
Probabilité 30%
du 24 à 04 UTC au 24 à 08 UTC
Visibilité: 3000 m
brume

TAF: FCPP 232300Z 2400/2424 20004KT 8000 SCT012 BKN023 PROB30 2404/2408 3000 BR

Observations et prévisions météorologiques de plus de 4000 aéroports (messages METAR et TAF).

Les stations disponibles sont représentées par des disques jaunes et rouges sur la carte.

Passer la souris dessus pour voir le nom de la station.

Cliquer dessus pour voir les observations et prévisions météorologiques.

Pour changer de carte: cliquez sur les boutons verts avec une croix noire pour zoomer, sur le bouton vert avec un tiret pour effectuer un zoom arrière, ou sur les flèches vertes pour les cartes adjacentes.


METAR-TAF: